Aérodrome :
LOGIN :

S'inscrire | Disclaimer

   EN    FR    IT 

 










Légende :    VFR   VFR Marginal   IFR   IFR Intensif   IFR Très Intensif
Visi : 
Plafond : 
>= 8 km
>= 3000ft
5 à 8 km
1000 à 3000 ft
1500m à 5 km
500 à 1000 ft
800 à 1500m
200 à 500 ft
< 800m
< 200 ft
Symboles :   Orages  Brouillard  Fortes neiges  Fortes précipitations  Vent > 20 kt
SIGMETs :   Divers  Orages  Givrage  Turbulence  Onde Orograph.  Cendres Volcan.






- Altitude de l'aérodrome : 1416 ft
- Code IATA : ZRH


LSZH - Zurich

DERNIER METAR :
  • 212250Z 16002KT CAVOK 00/M02 Q1031 NOSIG

METARs EXPIRÉS :
  • 212220Z VRB01KT CAVOK 01/M03 Q1031 NOSIG
  • 212150Z VRB02KT CAVOK 01/M02 Q1031 NOSIG
  • 212050Z VRB02KT CAVOK 01/M03 Q1030 NOSIG
  • 212020Z 13002KT CAVOK 03/M02 Q1030 NOSIG

TAF TAF LSZH
Valide du 21 à 21h jusqu'au 23 à 03h UTC


212025Z 2121/2303 VRB03KT CAVOK TX13/2214Z TNM03/2205Z
PROB40 2201/2208 4500 MIFG NSC
PROB30
TEMPO 2203/2208 2000 BCFG NSC
ATIS : +41 43 816 2295 (DEP) +41 43 816 2294 (ARR)



MET'MAP, la Météo Aéronautique d'un coup d'oeil ! - Copyright ORBIFLY Décembre 2007 - Disclaimer

ORBIFLY MET'MAP TEAM :

Programmation & Développement : Alexandra Zaïnal
Sur une idée originale de : Baudouin d'Aumeries
Assistance à la programmation : Marc-Olivier Méhu
Soutien technique & logistique : Manuel Goepfert

Contact : metmap@orbifly.com




SOURCES & CREDITS :

   NOAA